sensor_id;sensor_type;location;lat;lon;timestamp;pressure;altitude;pressure_sealevel;temperature;humidity
3428;BME280;1727;42.624;23.406;2022-11-30T00:02:14;95018.84;;;5.78;100.00
3428;BME280;1727;42.624;23.406;2022-11-30T00:04:41;95021.34;;;5.80;100.00
3428;BME280;1727;42.624;23.406;2022-11-30T00:07:08;95020.03;;;5.87;100.00
3428;BME280;1727;42.624;23.406;2022-11-30T00:09:35;95028.56;;;5.89;100.00
3428;BME280;1727;42.624;23.406;2022-11-30T00:12:03;95029.03;;;5.96;100.00
3428;BME280;1727;42.624;23.406;2022-11-30T00:14:30;95029.03;;;5.96;100.00
3428;BME280;1727;42.624;23.406;2022-11-30T00:16:57;95025.28;;;6.00;100.00
3428;BME280;1727;42.624;23.406;2022-11-30T00:19:24;95033.63;;;6.05;100.00
3428;BME280;1727;42.624;23.406;2022-11-30T00:21:51;95035.91;;;5.97;100.00
3428;BME280;1727;42.624;23.406;2022-11-30T00:24:17;95032.31;;;5.85;100.00
3428;BME280;1727;42.624;23.406;2022-11-30T00:26:44;95042.16;;;5.94;100.00
3428;BME280;1727;42.624;23.406;2022-11-30T00:29:13;95037.34;;;5.74;100.00
3428;BME280;1727;42.624;23.406;2022-11-30T00:31:40;95039.19;;;5.86;100.00
3428;BME280;1727;42.624;23.406;2022-11-30T00:34:06;95040.41;;;5.80;100.00
3428;BME280;1727;42.624;23.406;2022-11-30T00:36:33;95039.47;;;5.54;100.00
3428;BME280;1727;42.624;23.406;2022-11-30T00:39:00;95033.63;;;5.51;100.00
3428;BME280;1727;42.624;23.406;2022-11-30T00:41:27;95027.09;;;5.44;100.00
3428;BME280;1727;42.624;23.406;2022-11-30T00:43:54;95037.19;;;5.63;100.00
3428;BME280;1727;42.624;23.406;2022-11-30T00:46:22;95033.84;;;5.60;100.00
3428;BME280;1727;42.624;23.406;2022-11-30T00:48:49;95027.56;;;5.50;100.00
3428;BME280;1727;42.624;23.406;2022-11-30T00:51:16;95019.75;;;5.50;100.00
3428;BME280;1727;42.624;23.406;2022-11-30T00:53:44;95021.78;;;5.59;100.00
3428;BME280;1727;42.624;23.406;2022-11-30T00:56:13;95027.19;;;5.56;100.00
3428;BME280;1727;42.624;23.406;2022-11-30T00:58:40;95022.66;;;5.73;100.00
3428;BME280;1727;42.624;23.406;2022-11-30T01:04:30;95029.69;;;5.85;100.00
3428;BME280;1727;42.624;23.406;2022-11-30T01:06:57;95021.34;;;5.80;100.00
3428;BME280;1727;42.624;23.406;2022-11-30T01:09:24;95018.81;;;5.93;100.00
3428;BME280;1727;42.624;23.406;2022-11-30T01:11:50;95019.13;;;5.74;100.00
3428;BME280;1727;42.624;23.406;2022-11-30T01:21:28;95018.88;;;5.23;100.00
3428;BME280;1727;42.624;23.406;2022-11-30T01:23:55;95023.34;;;5.21;100.00
3428;BME280;1727;42.624;23.406;2022-11-30T01:26:23;95020.66;;;5.08;100.00
3428;BME280;1727;42.624;23.406;2022-11-30T01:28:51;95025.66;;;5.25;100.00
3428;BME280;1727;42.624;23.406;2022-11-30T01:31:18;95022.66;;;5.17;100.00
3428;BME280;1727;42.624;23.406;2022-11-30T01:33:48;95021.75;;;5.18;100.00
3428;BME280;1727;42.624;23.406;2022-11-30T01:36:18;95018.88;;;5.23;100.00
3428;BME280;1727;42.624;23.406;2022-11-30T01:38:48;95029.09;;;5.12;100.00
3428;BME280;1727;42.624;23.406;2022-11-30T01:41:19;95029.75;;;5.01;100.00
3428;BME280;1727;42.624;23.406;2022-11-30T01:43:49;95031.34;;;5.04;100.00
3428;BME280;1727;42.624;23.406;2022-11-30T01:49:49;95025.56;;;5.13;100.00
3428;BME280;1727;42.624;23.406;2022-11-30T01:52:20;95020.00;;;5.05;100.00
3428;BME280;1727;42.624;23.406;2022-11-30T01:54:52;95016.72;;;5.15;100.00
3428;BME280;1727;42.624;23.406;2022-11-30T01:57:23;95014.50;;;5.09;100.00
3428;BME280;1727;42.624;23.406;2022-11-30T01:59:53;95017.56;;;5.16;100.00
3428;BME280;1727;42.624;23.406;2022-11-30T02:02:28;95010.06;;;4.97;100.00
3428;BME280;1727;42.624;23.406;2022-11-30T02:08:32;95007.19;;;5.02;100.00
3428;BME280;1727;42.624;23.406;2022-11-30T02:11:04;95005.13;;;4.78;100.00
3428;BME280;1727;42.624;23.406;2022-11-30T02:13:39;95009.50;;;4.78;100.00
3428;BME280;1727;42.624;23.406;2022-11-30T02:16:18;95005.91;;;4.94;100.00
3428;BME280;1727;42.624;23.406;2022-11-30T02:18:56;95003.94;;;4.98;100.00
3428;BME280;1727;42.624;23.406;2022-11-30T02:21:30;95011.75;;;4.98;100.00
3428;BME280;1727;42.624;23.406;2022-11-30T02:24:14;95007.19;;;4.87;100.00
3428;BME280;1727;42.624;23.406;2022-11-30T02:27:10;95004.59;;;5.02;100.00
3428;BME280;1727;42.624;23.406;2022-11-30T02:29:43;95006.81;;;5.08;100.00
3428;BME280;1727;42.624;23.406;2022-11-30T02:32:15;95007.91;;;4.89;100.00
3428;BME280;1727;42.624;23.406;2022-11-30T02:34:46;95002.63;;;4.91;100.00
3428;BME280;1727;42.624;23.406;2022-11-30T02:37:14;95005.41;;;4.74;100.00
3428;BME280;1727;42.624;23.406;2022-11-30T02:39:48;95008.31;;;4.97;100.00
3428;BME280;1727;42.624;23.406;2022-11-30T02:42:15;95003.91;;;5.12;100.00
3428;BME280;1727;42.624;23.406;2022-11-30T02:44:46;95005.69;;;5.26;100.00
3428;BME280;1727;42.624;23.406;2022-11-30T02:47:19;95005.00;;;5.37;100.00
3428;BME280;1727;42.624;23.406;2022-11-30T02:49:50;95002.75;;;5.45;100.00
3428;BME280;1727;42.624;23.406;2022-11-30T02:52:24;95008.97;;;5.42;100.00
3428;BME280;1727;42.624;23.406;2022-11-30T02:54:52;95008.97;;;5.42;100.00
3428;BME280;1727;42.624;23.406;2022-11-30T02:57:19;95011.97;;;5.50;100.00
3428;BME280;1727;42.624;23.406;2022-11-30T02:59:47;95013.88;;;5.47;100.00
3428;BME280;1727;42.624;23.406;2022-11-30T03:02:14;95016.66;;;5.58;100.00
3428;BME280;1727;42.624;23.406;2022-11-30T03:04:41;95015.44;;;5.64;100.00
3428;BME280;1727;42.624;23.406;2022-11-30T03:07:07;95021.25;;;5.40;100.00
3428;BME280;1727;42.624;23.406;2022-11-30T03:09:34;95010.81;;;5.54;100.00
3428;BME280;1727;42.624;23.406;2022-11-30T03:12:01;95017.50;;;5.58;100.00
3428;BME280;1727;42.624;23.406;2022-11-30T03:14:28;95012.63;;;5.67;100.00
3428;BME280;1727;42.624;23.406;2022-11-30T03:16:56;95012.53;;;5.68;100.00
3428;BME280;1727;42.624;23.406;2022-11-30T03:19:23;95020.97;;;5.72;100.00
3428;BME280;1727;42.624;23.406;2022-11-30T03:21:50;95019.72;;;5.65;100.00
3428;BME280;1727;42.624;23.406;2022-11-30T03:24:17;95017.22;;;5.63;100.00
3428;BME280;1727;42.624;23.406;2022-11-30T03:26:44;95008.97;;;5.42;100.00
3428;BME280;1727;42.624;23.406;2022-11-30T03:29:11;95016.88;;;5.41;100.00
3428;BME280;1727;42.624;23.406;2022-11-30T03:31:37;95013.84;;;5.34;100.00
3428;BME280;1727;42.624;23.406;2022-11-30T03:34:06;95016.31;;;5.50;100.00
3428;BME280;1727;42.624;23.406;2022-11-30T03:36:33;95014.81;;;5.46;100.00
3428;BME280;1727;42.624;23.406;2022-11-30T03:39:00;95009.91;;;5.41;100.00
3428;BME280;1727;42.624;23.406;2022-11-30T03:41:28;95015.94;;;5.56;100.00
3428;BME280;1727;42.624;23.406;2022-11-30T03:43:55;95015.19;;;5.54;100.00
3428;BME280;1727;42.624;23.406;2022-11-30T03:46:21;95016.31;;;5.50;100.00
3428;BME280;1727;42.624;23.406;2022-11-30T03:48:49;95017.66;;;5.28;100.00
3428;BME280;1727;42.624;23.406;2022-11-30T03:51:17;95017.13;;;5.23;100.00
3428;BME280;1727;42.624;23.406;2022-11-30T03:53:44;95014.66;;;5.35;100.00
3428;BME280;1727;42.624;23.406;2022-11-30T03:56:11;95007.13;;;5.44;100.00
3428;BME280;1727;42.624;23.406;2022-11-30T03:58:38;95021.75;;;5.33;100.00
3428;BME280;1727;42.624;23.406;2022-11-30T04:01:09;95022.75;;;5.30;100.00
3428;BME280;1727;42.624;23.406;2022-11-30T04:03:37;95025.63;;;5.40;100.00
3428;BME280;1727;42.624;23.406;2022-11-30T04:06:05;95031.31;;;5.32;100.00
3428;BME280;1727;42.624;23.406;2022-11-30T04:08:34;95024.44;;;5.31;100.00
3428;BME280;1727;42.624;23.406;2022-11-30T04:11:02;95027.19;;;5.42;100.00
3428;BME280;1727;42.624;23.406;2022-11-30T04:13:30;95022.47;;;5.35;100.00
3428;BME280;1727;42.624;23.406;2022-11-30T04:15:58;95029.34;;;5.36;100.00
3428;BME280;1727;42.624;23.406;2022-11-30T04:18:26;95027.63;;;5.22;100.00
3428;BME280;1727;42.624;23.406;2022-11-30T04:20:55;95027.72;;;5.20;100.00
3428;BME280;1727;42.624;23.406;2022-11-30T04:23:23;95029.44;;;5.20;100.00
3428;BME280;1727;42.624;23.406;2022-11-30T04:25:51;95033.44;;;5.40;100.00
3428;BME280;1727;42.624;23.406;2022-11-30T04:28:19;95042.84;;;5.28;100.00
3428;BME280;1727;42.624;23.406;2022-11-30T04:30:46;95033.75;;;5.21;100.00
3428;BME280;1727;42.624;23.406;2022-11-30T04:33:14;95041.47;;;4.94;100.00
3428;BME280;1727;42.624;23.406;2022-11-30T04:35:43;95037.81;;;5.11;100.00
3428;BME280;1727;42.624;23.406;2022-11-30T04:38:11;95036.25;;;5.08;100.00
3428;BME280;1727;42.624;23.406;2022-11-30T04:40:38;95032.81;;;5.08;100.00
3428;BME280;1727;42.624;23.406;2022-11-30T04:43:08;95036.69;;;5.15;100.00
3428;BME280;1727;42.624;23.406;2022-11-30T04:45:35;95037.63;;;5.14;100.00
3428;BME280;1727;42.624;23.406;2022-11-30T04:48:03;95033.56;;;5.10;100.00
3428;BME280;1727;42.624;23.406;2022-11-30T04:50:31;95032.97;;;5.19;100.00
3428;BME280;1727;42.624;23.406;2022-11-30T04:52:58;95038.56;;;5.27;100.00
3428;BME280;1727;42.624;23.406;2022-11-30T04:55:25;95040.03;;;5.17;100.00
3428;BME280;1727;42.624;23.406;2022-11-30T04:57:53;95040.72;;;5.20;100.00
3428;BME280;1727;42.624;23.406;2022-11-30T05:00:21;95051.19;;;5.33;100.00
3428;BME280;1727;42.624;23.406;2022-11-30T05:02:48;95042.00;;;5.27;100.00
3428;BME280;1727;42.624;23.406;2022-11-30T05:05:16;95044.31;;;5.32;100.00
3428;BME280;1727;42.624;23.406;2022-11-30T05:07:43;95040.59;;;5.36;100.00
3428;BME280;1727;42.624;23.406;2022-11-30T05:10:10;95050.84;;;5.25;100.00
3428;BME280;1727;42.624;23.406;2022-11-30T05:12:37;95046.56;;;5.10;100.00
3428;BME280;1727;42.624;23.406;2022-11-30T05:15:05;95055.31;;;5.23;100.00
3428;BME280;1727;42.624;23.406;2022-11-30T05:17:34;95048.50;;;5.06;100.00
3428;BME280;1727;42.624;23.406;2022-11-30T05:20:01;95045.63;;;5.11;100.00
3428;BME280;1727;42.624;23.406;2022-11-30T05:22:27;95051.03;;;5.22;100.00
3428;BME280;1727;42.624;23.406;2022-11-30T05:24:54;95049.91;;;5.26;100.00
3428;BME280;1727;42.624;23.406;2022-11-30T05:27:21;95046.56;;;5.24;100.00
3428;BME280;1727;42.624;23.406;2022-11-30T05:29:48;95053.78;;;5.33;100.00
3428;BME280;1727;42.624;23.406;2022-11-30T05:32:15;95052.66;;;5.37;100.00
3428;BME280;1727;42.624;23.406;2022-11-30T05:34:43;95047.19;;;5.42;100.00
3428;BME280;1727;42.624;23.406;2022-11-30T05:37:10;95047.75;;;5.33;100.00
3428;BME280;1727;42.624;23.406;2022-11-30T05:39:37;95045.06;;;5.20;100.00
3428;BME280;1727;42.624;23.406;2022-11-30T05:42:04;95058.84;;;5.22;100.00
3428;BME280;1727;42.624;23.406;2022-11-30T05:44:31;95053.34;;;5.26;100.00
3428;BME280;1727;42.624;23.406;2022-11-30T05:50:21;95058.25;;;5.17;100.00
3428;BME280;1727;42.624;23.406;2022-11-30T05:52:48;95062.72;;;5.01;100.00
3428;BME280;1727;42.624;23.406;2022-11-30T05:55:15;95065.50;;;4.97;100.00
3428;BME280;1727;42.624;23.406;2022-11-30T05:57:41;95063.19;;;4.93;100.00
3428;BME280;1727;42.624;23.406;2022-11-30T06:00:09;95061.88;;;4.86;100.00
3428;BME280;1727;42.624;23.406;2022-11-30T06:02:36;95064.75;;;4.81;100.00
3428;BME280;1727;42.624;23.406;2022-11-30T06:05:04;95075.78;;;4.85;100.00
3428;BME280;1727;42.624;23.406;2022-11-30T06:07:32;95072.72;;;4.78;100.00
3428;BME280;1727;42.624;23.406;2022-11-30T06:09:59;95074.22;;;4.82;100.00
3428;BME280;1727;42.624;23.406;2022-11-30T06:12:26;95082.31;;;4.92;100.00
3428;BME280;1727;42.624;23.406;2022-11-30T06:14:53;95082.56;;;4.73;100.00
3428;BME280;1727;42.624;23.406;2022-11-30T06:17:19;95088.13;;;4.67;100.00
3428;BME280;1727;42.624;23.406;2022-11-30T06:19:46;95080.16;;;4.84;100.00
3428;BME280;1727;42.624;23.406;2022-11-30T06:22:13;95086.28;;;4.83;100.00
3428;BME280;1727;42.624;23.406;2022-11-30T06:24:41;95080.56;;;4.62;100.00
3428;BME280;1727;42.624;23.406;2022-11-30T06:27:08;95075.56;;;4.59;100.00
3428;BME280;1727;42.624;23.406;2022-11-30T06:29:35;95084.59;;;4.68;100.00
3428;BME280;1727;42.624;23.406;2022-11-30T06:32:02;95078.06;;;4.61;100.00
3428;BME280;1727;42.624;23.406;2022-11-30T06:34:29;95084.06;;;4.77;100.00
3428;BME280;1727;42.624;23.406;2022-11-30T06:36:56;95085.25;;;4.72;100.00
3428;BME280;1727;42.624;23.406;2022-11-30T06:39:23;95088.88;;;4.83;100.00
3428;BME280;1727;42.624;23.406;2022-11-30T06:41:51;95093.06;;;4.86;100.00
3428;BME280;1727;42.624;23.406;2022-11-30T06:44:18;95100.25;;;4.96;100.00
3428;BME280;1727;42.624;23.406;2022-11-30T06:46:45;95101.19;;;4.95;100.00
3428;BME280;1727;42.624;23.406;2022-11-30T06:49:12;95097.06;;;4.91;100.00
3428;BME280;1727;42.624;23.406;2022-11-30T06:51:39;95106.09;;;5.00;100.00
3428;BME280;1727;42.624;23.406;2022-11-30T06:54:06;95091.34;;;5.01;100.00
3428;BME280;1727;42.624;23.406;2022-11-30T06:56:33;95098.38;;;4.98;100.00
3428;BME280;1727;42.624;23.406;2022-11-30T06:59:02;95112.31;;;5.12;100.00
3428;BME280;1727;42.624;23.406;2022-11-30T07:01:29;95107.31;;;4.94;100.00
3428;BME280;1727;42.624;23.406;2022-11-30T07:03:56;95109.16;;;4.92;100.00
3428;BME280;1727;42.624;23.406;2022-11-30T07:06:23;95103.69;;;4.97;100.00
3428;BME280;1727;42.624;23.406;2022-11-30T07:08:49;95096.97;;;4.79;100.00
3428;BME280;1727;42.624;23.406;2022-11-30T07:11:16;95094.72;;;4.73;100.00
3428;BME280;1727;42.624;23.406;2022-11-30T07:13:43;95094.34;;;4.64;100.00
3428;BME280;1727;42.624;23.406;2022-11-30T07:16:11;95097.19;;;4.60;100.00
3428;BME280;1727;42.624;23.406;2022-11-30T07:18:38;95098.38;;;4.54;100.00
3428;BME280;1727;42.624;23.406;2022-11-30T07:21:05;95089.75;;;4.54;100.00
3428;BME280;1727;42.624;23.406;2022-11-30T07:23:33;95104.66;;;4.66;100.00
3428;BME280;1727;42.624;23.406;2022-11-30T07:26:17;95105.72;;;4.62;100.00
3428;BME280;1727;42.624;23.406;2022-11-30T07:28:44;95113.47;;;4.63;100.00
3428;BME280;1727;42.624;23.406;2022-11-30T07:31:15;95108.59;;;4.57;100.00
3428;BME280;1727;42.624;23.406;2022-11-30T07:33:43;95100.66;;;4.75;100.00
3428;BME280;1727;42.624;23.406;2022-11-30T07:36:10;95105.63;;;4.93;100.00
3428;BME280;1727;42.624;23.406;2022-11-30T07:38:38;95103.28;;;4.89;100.00
3428;BME280;1727;42.624;23.406;2022-11-30T07:41:05;95107.59;;;5.04;100.00
3428;BME280;1727;42.624;23.406;2022-11-30T07:43:32;95110.66;;;4.96;100.00
3428;BME280;1727;42.624;23.406;2022-11-30T07:46:00;95112.03;;;5.02;100.00
3428;BME280;1727;42.624;23.406;2022-11-30T07:48:29;95107.31;;;5.09;100.00
3428;BME280;1727;42.624;23.406;2022-11-30T07:51:01;95105.16;;;5.01;100.00
3428;BME280;1727;42.624;23.406;2022-11-30T07:53:28;95111.41;;;4.98;100.00
3428;BME280;1727;42.624;23.406;2022-11-30T07:56:00;95105.41;;;4.82;100.00
3428;BME280;1727;42.624;23.406;2022-11-30T07:58:27;95103.97;;;4.92;100.00
3428;BME280;1727;42.624;23.406;2022-11-30T08:00:59;95101.63;;;5.02;100.00
3428;BME280;1727;42.624;23.406;2022-11-30T08:03:26;95105.06;;;5.03;100.00
3428;BME280;1727;42.624;23.406;2022-11-30T08:06:01;95106.66;;;5.05;100.00
3428;BME280;1727;42.624;23.406;2022-11-30T08:08:30;95102.56;;;5.01;100.00
3428;BME280;1727;42.624;23.406;2022-11-30T08:10:59;95098.38;;;4.98;100.00
3428;BME280;1727;42.624;23.406;2022-11-30T08:13:26;95097.19;;;5.04;100.00
3428;BME280;1727;42.624;23.406;2022-11-30T08:15:54;95105.44;;;4.96;100.00
3428;BME280;1727;42.624;23.406;2022-11-30T08:18:21;95101.38;;;4.92;100.00
3428;BME280;1727;42.624;23.406;2022-11-30T08:20:55;95106.75;;;5.04;100.00
3428;BME280;1727;42.624;23.406;2022-11-30T08:23:26;95102.03;;;5.24;100.00
3428;BME280;1727;42.624;23.406;2022-11-30T08:25:53;95102.19;;;5.36;100.00
3428;BME280;1727;42.624;23.406;2022-11-30T08:28:22;95100.69;;;5.46;100.00
3428;BME280;1727;42.624;23.406;2022-11-30T08:30:49;95100.78;;;5.44;100.00
3428;BME280;1727;42.624;23.406;2022-11-30T08:33:16;95102.28;;;5.48;100.00
3428;BME280;1727;42.624;23.406;2022-11-30T08:35:43;95106.75;;;5.46;100.00
3428;BME280;1727;42.624;23.406;2022-11-30T08:38:10;95108.59;;;5.58;100.00
3428;BME280;1727;42.624;23.406;2022-11-30T08:40:38;95107.09;;;5.69;100.00
3428;BME280;1727;42.624;23.406;2022-11-30T08:43:05;95105.53;;;5.66;100.00
3428;BME280;1727;42.624;23.406;2022-11-30T08:45:32;95106.19;;;5.41;100.00
3428;BME280;1727;42.624;23.406;2022-11-30T08:47:59;95101.19;;;5.52;100.00
3428;BME280;1727;42.624;23.406;2022-11-30T08:50:26;95105.06;;;5.59;100.00
3428;BME280;1727;42.624;23.406;2022-11-30T08:52:53;95100.13;;;5.69;100.00
3428;BME280;1727;42.624;23.406;2022-11-30T08:55:20;95107.28;;;5.80;100.00
3428;BME280;1727;42.624;23.406;2022-11-30T08:57:49;95096.47;;;5.86;100.00
3428;BME280;1727;42.624;23.406;2022-11-30T09:00:16;95103.19;;;5.90;100.00
3428;BME280;1727;42.624;23.406;2022-11-30T09:02:43;95106.34;;;5.81;100.00
3428;BME280;1727;42.624;23.406;2022-11-30T09:05:11;95103.66;;;5.68;100.00
3428;BME280;1727;42.624;23.406;2022-11-30T09:07:38;95113.81;;;5.58;100.00
3428;BME280;1727;42.624;23.406;2022-11-30T09:10:06;95115.09;;;5.66;100.00
3428;BME280;1727;42.624;23.406;2022-11-30T09:12:34;95108.84;;;5.68;100.00
3428;BME280;1727;42.624;23.406;2022-11-30T09:15:02;95111.31;;;5.57;100.00
3428;BME280;1727;42.624;23.406;2022-11-30T09:17:29;95104.56;;;5.81;100.00
3428;BME280;1727;42.624;23.406;2022-11-30T09:19:56;95113.31;;;5.95;100.00
3428;BME280;1727;42.624;23.406;2022-11-30T09:22:23;95109.28;;;5.89;100.00
3428;BME280;1727;42.624;23.406;2022-11-30T09:24:50;95110.41;;;5.99;100.00
3428;BME280;1727;42.624;23.406;2022-11-30T09:27:17;95108.13;;;5.80;100.00
3428;BME280;1727;42.624;23.406;2022-11-30T09:29:44;95107.72;;;5.86;100.00
3428;BME280;1727;42.624;23.406;2022-11-30T09:32:12;95119.19;;;5.70;100.00
3428;BME280;1727;42.624;23.406;2022-11-30T09:34:42;95118.44;;;5.68;100.00
3428;BME280;1727;42.624;23.406;2022-11-30T09:37:09;95116.19;;;5.76;100.00
3428;BME280;1727;42.624;23.406;2022-11-30T09:39:36;95113.63;;;5.62;100.00
3428;BME280;1727;42.624;23.406;2022-11-30T09:42:17;95112.59;;;5.64;100.00
3428;BME280;1727;42.624;23.406;2022-11-30T09:44:54;95112.97;;;5.58;100.00
3428;BME280;1727;42.624;23.406;2022-11-30T09:47:45;95121.41;;;5.47;100.00
3428;BME280;1727;42.624;23.406;2022-11-30T09:50:21;95118.47;;;5.53;100.00
3428;BME280;1727;42.624;23.406;2022-11-30T09:52:51;95124.41;;;5.41;100.00
3428;BME280;1727;42.624;23.406;2022-11-30T09:55:24;95114.38;;;5.35;100.00
3428;BME280;1727;42.624;23.406;2022-11-30T09:57:54;95112.81;;;5.33;100.00
3428;BME280;1727;42.624;23.406;2022-11-30T10:00:23;95097.66;;;5.39;100.00
3428;BME280;1727;42.624;23.406;2022-11-30T10:02:54;95107.47;;;5.48;100.00
3428;BME280;1727;42.624;23.406;2022-11-30T10:05:24;95104.53;;;5.54;100.00
3428;BME280;1727;42.624;23.406;2022-11-30T10:08:03;95101.38;;;5.49;100.00
3428;BME280;1727;42.624;23.406;2022-11-30T10:10:38;95097.25;;;5.45;100.00
3428;BME280;1727;42.624;23.406;2022-11-30T10:13:19;95101.09;;;5.54;100.00
3428;BME280;1727;42.624;23.406;2022-11-30T10:16:00;95108.22;;;5.65;100.00
3428;BME280;1727;42.624;23.406;2022-11-30T10:18:39;95102.47;;;5.59;100.00
3428;BME280;1727;42.624;23.406;2022-11-30T10:21:16;95107.13;;;5.54;100.00
3428;BME280;1727;42.624;23.406;2022-11-30T10:24:06;95101.91;;;5.54;100.00
3428;BME280;1727;42.624;23.406;2022-11-30T10:26:44;95085.66;;;5.51;100.00
3428;BME280;1727;42.624;23.406;2022-11-30T10:29:17;95098.00;;;5.62;100.00
3428;BME280;1727;42.624;23.406;2022-11-30T10:31:46;95089.84;;;5.39;100.00
3428;BME280;1727;42.624;23.406;2022-11-30T10:34:21;95095.03;;;5.39;100.00
3428;BME280;1727;42.624;23.406;2022-11-30T10:36:52;95091.03;;;5.48;100.00
3428;BME280;1727;42.624;23.406;2022-11-30T10:39:24;95092.88;;;5.60;100.00
3428;BME280;1727;42.624;23.406;2022-11-30T10:41:58;95087.59;;;5.47;100.00
3428;BME280;1727;42.624;23.406;2022-11-30T10:44:28;95081.66;;;5.45;100.00
3428;BME280;1727;42.624;23.406;2022-11-30T10:46:59;95090.97;;;5.49;100.00
3428;BME280;1727;42.624;23.406;2022-11-30T10:49:30;95088.53;;;5.46;100.00
3428;BME280;1727;42.624;23.406;2022-11-30T10:52:00;95087.97;;;5.41;100.00
3428;BME280;1727;42.624;23.406;2022-11-30T10:54:29;95084.53;;;5.41;100.00
3428;BME280;1727;42.624;23.406;2022-11-30T10:56:57;95071.81;;;5.36;100.00
3428;BME280;1727;42.624;23.406;2022-11-30T10:59:30;95074.41;;;5.36;100.00
3428;BME280;1727;42.624;23.406;2022-11-30T11:01:59;95066.34;;;5.26;100.00
3428;BME280;1727;42.624;23.406;2022-11-30T11:04:26;95067.84;;;5.31;100.00
3428;BME280;1727;42.624;23.406;2022-11-30T11:06:56;95067.94;;;5.29;100.00
3428;BME280;1727;42.624;23.406;2022-11-30T11:09:39;95068.03;;;5.27;100.00
3428;BME280;1727;42.624;23.406;2022-11-30T11:12:15;95064.69;;;5.25;100.00
3428;BME280;1727;42.624;23.406;2022-11-30T11:14:43;95066.44;;;5.25;100.00
3428;BME280;1727;42.624;23.406;2022-11-30T11:17:21;95063.47;;;5.31;100.00
3428;BME280;1727;42.624;23.406;2022-11-30T11:19:49;95073.03;;;5.31;100.00
3428;BME280;1727;42.624;23.406;2022-11-30T11:22:21;95064.94;;;5.35;100.00
3428;BME280;1727;42.624;23.406;2022-11-30T11:24:53;95071.03;;;5.48;100.00
3428;BME280;1727;42.624;23.406;2022-11-30T11:27:28;95056.47;;;5.46;100.00
3428;BME280;1727;42.624;23.406;2022-11-30T11:30:00;95061.06;;;5.28;100.00
3428;BME280;1727;42.624;23.406;2022-11-30T11:32:27;95059.28;;;5.28;100.00
3428;BME280;1727;42.624;23.406;2022-11-30T11:34:54;95060.47;;;5.37;100.00
3428;BME280;1727;42.624;23.406;2022-11-30T11:37:24;95058.91;;;5.35;100.00
3428;BME280;1727;42.624;23.406;2022-11-30T11:39:57;95058.03;;;5.48;100.00
3428;BME280;1727;42.624;23.406;2022-11-30T11:42:26;95065.38;;;5.42;100.00
3428;BME280;1727;42.624;23.406;2022-11-30T11:44:56;95058.03;;;5.63;100.00
3428;BME280;1727;42.624;23.406;2022-11-30T11:47:34;95057.97;;;5.50;100.00
3428;BME280;1727;42.624;23.406;2022-11-30T11:52:48;95051.78;;;5.65;100.00
3428;BME280;1727;42.624;23.406;2022-11-30T11:55:18;95058.06;;;5.75;100.00
3428;BME280;1727;42.624;23.406;2022-11-30T11:57:49;95052.88;;;5.75;100.00
3428;BME280;1727;42.624;23.406;2022-11-30T12:00:19;95047.09;;;5.84;100.00
3428;BME280;1727;42.624;23.406;2022-11-30T12:02:52;95058.16;;;5.88;100.00
3428;BME280;1727;42.624;23.406;2022-11-30T12:05:26;95053.88;;;5.87;100.00
3428;BME280;1727;42.624;23.406;2022-11-30T12:08:06;95071.09;;;5.75;100.00
3428;BME280;1727;42.624;23.406;2022-11-30T12:10:39;95059.81;;;5.89;100.00
3428;BME280;1727;42.624;23.406;2022-11-30T12:13:12;95060.09;;;5.99;100.00
3428;BME280;1727;42.624;23.406;2022-11-30T12:15:47;95074.59;;;5.88;100.00
3428;BME280;1727;42.624;23.406;2022-11-30T12:18:20;95071.44;;;5.98;100.00
3428;BME280;1727;42.624;23.406;2022-11-30T12:20:53;95071.16;;;5.88;100.00
3428;BME280;1727;42.624;23.406;2022-11-30T12:23:36;95076.84;;;5.95;100.00
3428;BME280;1727;42.624;23.406;2022-11-30T12:26:13;95073.59;;;5.91;100.00
3428;BME280;1727;42.624;23.406;2022-11-30T12:28:51;95078.81;;;5.91;100.00
3428;BME280;1727;42.624;23.406;2022-11-30T12:31:25;95079.06;;;6.01;100.00
3428;BME280;1727;42.624;23.406;2022-11-30T12:34:04;95075.97;;;6.08;100.00
3428;BME280;1727;42.624;23.406;2022-11-30T12:36:42;95079.44;;;6.21;100.00
3428;BME280;1727;42.624;23.406;2022-11-30T12:39:26;95079.25;;;6.25;100.00
3428;BME280;1727;42.624;23.406;2022-11-30T12:41:58;95073.84;;;6.28;100.00
3428;BME280;1727;42.624;23.406;2022-11-30T12:44:38;95068.91;;;6.10;100.00
3428;BME280;1727;42.624;23.406;2022-11-30T12:47:17;95066.13;;;5.99;100.00
3428;BME280;1727;42.624;23.406;2022-11-30T12:49:58;95087.47;;;5.92;100.00
3428;BME280;1727;42.624;23.406;2022-11-30T12:52:37;95082.59;;;6.00;100.00
3428;BME280;1727;42.624;23.406;2022-11-30T12:55:19;95089.03;;;5.94;100.00
3428;BME280;1727;42.624;23.406;2022-11-30T12:58:05;95079.38;;;5.82;100.00
3428;BME280;1727;42.624;23.406;2022-11-30T13:00:41;95076.31;;;5.89;100.00
3428;BME280;1727;42.624;23.406;2022-11-30T13:03:48;95085.50;;;5.95;100.00
3428;BME280;1727;42.624;23.406;2022-11-30T13:06:21;95088.63;;;6.00;100.00
3428;BME280;1727;42.624;23.406;2022-11-30T13:08:55;95082.84;;;6.09;100.00
3428;BME280;1727;42.624;23.406;2022-11-30T13:11:29;95086.34;;;6.22;100.00
3428;BME280;1727;42.624;23.406;2022-11-30T13:13:58;95090.84;;;6.33;100.00
3428;BME280;1727;42.624;23.406;2022-11-30T13:16:29;95092.03;;;6.15;100.00
3428;BME280;1727;42.624;23.406;2022-11-30T13:19:03;95092.63;;;6.06;100.00
3428;BME280;1727;42.624;23.406;2022-11-30T13:21:39;95092.47;;;6.21;100.00
3428;BME280;1727;42.624;23.406;2022-11-30T13:24:13;95096.66;;;6.24;100.00
3428;BME280;1727;42.624;23.406;2022-11-30T13:26:48;95090.28;;;6.15;100.00
3428;BME280;1727;42.624;23.406;2022-11-30T13:29:55;95084.91;;;6.04;100.00
3428;BME280;1727;42.624;23.406;2022-11-30T13:32:24;95091.44;;;5.97;100.00
3428;BME280;1727;42.624;23.406;2022-11-30T13:34:51;95093.22;;;5.82;100.00
3428;BME280;1727;42.624;23.406;2022-11-30T13:37:19;95094.81;;;5.85;100.00
3428;BME280;1727;42.624;23.406;2022-11-30T13:39:48;95087.56;;;5.90;100.00
3428;BME280;1727;42.624;23.406;2022-11-30T13:42:35;95097.50;;;5.83;100.00
3428;BME280;1727;42.624;23.406;2022-11-30T13:45:18;95087.06;;;5.98;100.00
3428;BME280;1727;42.624;23.406;2022-11-30T13:47:51;95092.63;;;6.06;100.00
3428;BME280;1727;42.624;23.406;2022-11-30T13:50:24;95086.75;;;6.02;100.00